createdAt,value
2016-12-10T00:00:29.635Z,34.89
2016-12-10T00:01:29.340Z,36.22
2016-12-10T00:02:29.691Z,36.79
2016-12-10T00:03:29.370Z,36.41
2016-12-10T00:04:29.703Z,36.13
2016-12-10T00:05:29.403Z,35.65
2016-12-10T00:06:29.755Z,35.46
2016-12-10T00:07:29.749Z,35.17
2016-12-10T00:08:29.763Z,34.51
2016-12-10T00:09:29.465Z,34.51
2016-12-10T00:10:29.515Z,34.7
2016-12-10T00:11:29.812Z,34.03
2016-12-10T00:12:29.829Z,34.42
2016-12-10T00:13:29.529Z,33.94
2016-12-10T00:14:29.859Z,34.03
2016-12-10T00:15:29.878Z,34.32
2016-12-10T00:16:29.606Z,34.99
2016-12-10T00:17:29.910Z,35.75
2016-12-10T00:18:29.888Z,35.73
2016-12-10T00:19:30.879Z,35.63
2016-12-10T00:20:30.842Z,35.63
2016-12-10T00:21:30.825Z,35.92
2016-12-10T00:22:30.499Z,36.21
2016-12-10T00:23:30.958Z,36.96
2016-12-10T00:24:30.251Z,36.77
2016-12-10T00:25:30.036Z,36.96
2016-12-10T00:26:30.055Z,37.15
2016-12-10T00:27:29.786Z,37.63
2016-12-10T00:28:29.771Z,38.1
2016-12-10T00:29:29.806Z,37.92
2016-12-10T00:30:29.801Z,37.54
2016-12-10T00:31:30.130Z,36.77
2016-12-10T00:32:30.150Z,36.87
2016-12-10T00:33:30.162Z,37.06
2016-12-10T00:34:29.868Z,36.68
2016-12-10T00:35:30.236Z,36.02
2016-12-10T00:36:29.895Z,36.21
2016-12-10T00:37:30.232Z,36.02
2016-12-10T00:38:29.925Z,36.49
2016-12-10T00:39:30.262Z,36.49
2016-12-10T00:40:29.958Z,36.3
2016-12-10T00:41:29.979Z,36.4
2016-12-10T00:42:29.990Z,36.49
2016-12-10T00:43:30.009Z,36.49
2016-12-10T00:44:30.335Z,36.77
2016-12-10T00:45:30.355Z,36.49
2016-12-10T00:46:30.052Z,36.77
2016-12-10T00:47:30.390Z,37.06
2016-12-10T00:48:30.399Z,36.4
2016-12-10T00:49:30.099Z,36.21
2016-12-10T00:50:30.117Z,36.11
2016-12-10T00:51:30.132Z,36.58
2016-12-10T00:52:30.150Z,36.49
2016-12-10T00:53:30.165Z,36.02
2016-12-10T00:54:30.494Z,36.96
2016-12-10T00:55:30.194Z,37.73
2016-12-10T00:56:30.526Z,38.1
2016-12-10T00:57:30.225Z,37.73
2016-12-10T00:58:30.243Z,37.15
2016-12-10T00:59:30.575Z,37.44
2016-12-10T01:00:30.275Z,36.3
2016-12-10T01:01:30.290Z,36.47
2016-12-10T01:02:30.307Z,36.28
2016-12-10T01:03:30.636Z,36.19
2016-12-10T01:04:30.655Z,36.57
2016-12-10T01:05:30.352Z,36.09
2016-12-10T01:06:30.365Z,36
2016-12-10T01:07:30.700Z,35.92
2016-12-10T01:08:30.402Z,36.28
2016-12-10T01:09:30.730Z,36
2016-12-10T01:10:30.748Z,35.9
2016-12-10T01:11:30.765Z,36.38
2016-12-10T01:12:30.462Z,36.38
2016-12-10T01:13:30.794Z,36.3
2016-12-10T01:14:30.500Z,36.49
2016-12-10T01:15:30.516Z,36.02
2016-12-10T01:16:30.533Z,36.38
2016-12-10T01:17:30.856Z,36.57
2016-12-10T01:18:30.874Z,36.4
2016-12-10T01:19:30.775Z,36.4
2016-12-10T01:20:30.902Z,36.3
2016-12-10T01:21:30.604Z,36.58
2016-12-10T01:22:30.622Z,36.11
2016-12-10T01:23:30.636Z,36.28
2016-12-10T01:24:30.652Z,36.76
2016-12-10T01:25:30.981Z,37.04
2016-12-10T01:26:30.695Z,37.04
2016-12-10T01:27:30.706Z,37.33
2016-12-10T01:28:30.712Z,37.71
2016-12-10T01:29:31.046Z,37.61
2016-12-10T01:30:31.060Z,37.9
2016-12-10T01:31:30.757Z,38.26
2016-12-10T01:32:31.090Z,38.75
2016-12-10T01:33:30.788Z,39.01
2016-12-10T01:34:30.805Z,39.21
2016-12-10T01:35:31.138Z,39.01
2016-12-10T01:36:30.837Z,38.92
2016-12-10T01:37:30.851Z,39.3
2016-12-10T01:38:31.182Z,39.3
2016-12-10T01:39:30.878Z,39.4
2016-12-10T01:40:31.215Z,39.59
2016-12-10T01:41:30.921Z,39.4
2016-12-10T01:42:30.933Z,39.23
2016-12-10T01:43:31.258Z,39.04
2016-12-10T01:44:31.271Z,38.94
2016-12-10T01:45:31.289Z,38.85
2016-12-10T01:46:31.299Z,38.94
2016-12-10T01:47:31.318Z,38.94
2016-12-10T01:48:31.018Z,38.56
2016-12-10T01:49:31.349Z,38.75
2016-12-10T01:50:31.046Z,38.65
2016-12-10T01:51:31.382Z,38.56
2016-12-10T01:52:31.077Z,38.85
2016-12-10T01:53:31.404Z,39.7
2016-12-10T01:54:31.109Z,39.04
2016-12-10T01:55:31.124Z,38.37
2016-12-10T01:56:31.454Z,38.37
2016-12-10T01:57:31.467Z,38.18
2016-12-10T01:58:31.176Z,38.37
2016-12-10T01:59:31.181Z,38.37
2016-12-10T02:00:31.517Z,38.75
2016-12-10T02:01:31.528Z,39.23
2016-12-10T02:02:31.544Z,38.46
2016-12-10T02:03:31.562Z,38.65
2016-12-10T02:04:31.572Z,38.37
2016-12-10T02:05:31.272Z,38.75
2016-12-10T02:06:31.290Z,38.85
2016-12-10T02:07:31.619Z,38.46
2016-12-10T02:08:31.319Z,39.23
2016-12-10T02:09:31.650Z,39.13
2016-12-10T02:10:31.352Z,39.04
2016-12-10T02:11:31.682Z,39.23
2016-12-10T02:12:31.696Z,39.51
2016-12-10T02:13:31.394Z,39.23
2016-12-10T02:14:31.725Z,39.04
2016-12-10T02:15:31.424Z,39.42
2016-12-10T02:16:31.440Z,39.32
2016-12-10T02:17:31.462Z,39.7
2016-12-10T02:18:31.786Z,39.61
2016-12-10T02:19:31.820Z,39.79
2016-12-10T02:20:31.498Z,39.51
2016-12-10T02:21:31.514Z,38.94
2016-12-10T02:22:31.531Z,39.7
2016-12-10T02:23:31.860Z,38.94
2016-12-10T02:24:31.876Z,38.65
2016-12-10T02:25:31.890Z,38.46
2016-12-10T02:26:31.906Z,38.1
2016-12-10T02:27:31.921Z,37.82
2016-12-10T02:28:31.622Z,38.29
2016-12-10T02:29:31.636Z,38.48
2016-12-10T02:30:31.964Z,38.01
2016-12-10T02:31:31.665Z,38.09
2016-12-10T02:32:32.001Z,37.54
2016-12-10T02:33:31.698Z,37.54
2016-12-10T02:34:31.711Z,38.1
2016-12-10T02:35:31.724Z,38.01
2016-12-10T02:36:31.739Z,38.29
2016-12-10T02:37:31.756Z,38.46
2016-12-10T02:38:31.770Z,38.56
2016-12-10T02:39:32.104Z,39.23
2016-12-10T02:40:32.588Z,39.23
2016-12-10T02:41:32.623Z,39.32
2016-12-10T02:42:32.525Z,39.61
2016-12-10T02:43:32.089Z,40.08
2016-12-10T02:44:32.287Z,40.17
2016-12-10T02:45:32.002Z,39.7
2016-12-10T02:46:32.854Z,40.17
2016-12-10T02:47:32.883Z,39.32
2016-12-10T02:48:32.116Z,39.7
2016-12-10T02:49:32.250Z,40.17
2016-12-10T02:50:31.952Z,39.42
2016-12-10T02:51:31.966Z,39.98
2016-12-10T02:52:31.982Z,40.17
2016-12-10T02:53:31.997Z,40.65
2016-12-10T02:54:32.328Z,40.27
2016-12-10T02:55:32.047Z,40.17
2016-12-10T02:56:32.357Z,40.56
2016-12-10T02:57:32.373Z,40.44
2016-12-10T02:58:32.074Z,41.13
2016-12-10T02:59:32.086Z,41.41
2016-12-10T03:00:32.331Z,39.98
2016-12-10T03:01:32.355Z,40.65
2016-12-10T03:02:47.019Z,40.56
2016-12-10T03:03:32.935Z,40.25
2016-12-10T03:04:32.959Z,40.56
2016-12-10T03:05:32.966Z,39.98
2016-12-10T03:06:32.972Z,39.89
2016-12-10T03:07:32.749Z,40.37
2016-12-10T03:08:32.722Z,40.82
2016-12-10T03:09:32.802Z,40.94
2016-12-10T03:10:33.109Z,40.92
2016-12-10T03:11:32.869Z,41.3
2016-12-10T03:12:32.821Z,41.2
2016-12-10T03:13:33.265Z,41.86
2016-12-10T03:14:32.455Z,41.2
2016-12-10T03:15:32.539Z,40.92
2016-12-10T03:16:32.737Z,40.92
2016-12-10T03:17:32.453Z,40.92
2016-12-10T03:18:32.830Z,41.39
2016-12-10T03:19:33.296Z,42.24
2016-12-10T03:20:32.507Z,41.77
2016-12-10T03:21:33.355Z,41.77
2016-12-10T03:22:33.399Z,41.2
2016-12-10T03:23:32.876Z,41.3
2016-12-10T03:24:32.692Z,39.49
2016-12-10T03:25:32.497Z,38.26
2016-12-10T03:26:32.496Z,37.78
2016-12-10T03:27:33.099Z,37.69
2016-12-10T03:28:32.650Z,36.93
2016-12-10T03:29:33.036Z,36.93
2016-12-10T03:30:32.964Z,36.74
2016-12-10T03:31:33.256Z,36.94
2016-12-10T03:32:33.347Z,36.28
2016-12-10T03:33:33.574Z,36
2016-12-10T03:34:32.709Z,36
2016-12-10T03:35:33.019Z,35.61
2016-12-10T03:36:33.369Z,35.71
2016-12-10T03:37:33.474Z,35.33
2016-12-10T03:38:33.083Z,35.71
2016-12-10T03:39:32.672Z,35.14
2016-12-10T03:40:33.005Z,35.33
2016-12-10T03:41:33.018Z,35.42
2016-12-10T03:42:33.034Z,35.52
2016-12-10T03:43:32.733Z,35.42
2016-12-10T03:44:32.747Z,35.42
2016-12-10T03:45:33.079Z,35.24
2016-12-10T03:46:33.094Z,34.95
2016-12-10T03:47:32.793Z,34.76
2016-12-10T03:48:32.807Z,34.76
2016-12-10T03:49:32.821Z,34.76
2016-12-10T03:50:33.149Z,34.86
2016-12-10T03:51:32.852Z,35.14
2016-12-10T03:52:32.870Z,34.95
2016-12-10T03:53:32.883Z,34.67
2016-12-10T03:54:32.895Z,35.14
2016-12-10T03:55:32.910Z,34.86
2016-12-10T03:56:32.930Z,35.05
2016-12-10T03:57:33.257Z,35.14
2016-12-10T03:58:32.954Z,34.86
2016-12-10T03:59:33.299Z,34.86
2016-12-10T04:00:33.302Z,34.57
2016-12-10T04:01:33.001Z,34.67
2016-12-10T04:02:33.332Z,34.88
2016-12-10T04:03:33.032Z,35.24
2016-12-10T04:04:33.048Z,34.78
2016-12-10T04:05:33.374Z,34.95
2016-12-10T04:06:33.391Z,34.95
2016-12-10T04:07:33.407Z,34.86
2016-12-10T04:08:33.424Z,34.38
2016-12-10T04:09:33.122Z,34.69
2016-12-10T04:10:33.137Z,35.06
2016-12-10T04:11:33.151Z,35.25
2016-12-10T04:12:33.166Z,35.16
2016-12-10T04:13:33.262Z,35.54
2016-12-10T04:14:33.526Z,35.73
2016-12-10T04:15:33.527Z,35.83
2016-12-10T04:16:33.226Z,36.3
2016-12-10T04:17:33.581Z,35.35
2016-12-10T04:18:33.573Z,36.3
2016-12-10T04:19:33.274Z,36.11
2016-12-10T04:20:33.604Z,35.25
2016-12-10T04:21:33.622Z,34.3
2016-12-10T04:22:33.634Z,34.88
2016-12-10T04:23:33.650Z,34.3
2016-12-10T04:24:33.665Z,34.78
2016-12-10T04:25:33.366Z,35.54
2016-12-10T04:26:33.696Z,35.44
2016-12-10T04:27:33.395Z,35.54
2016-12-10T04:28:33.729Z,35.25
2016-12-10T04:29:33.433Z,35.35
2016-12-10T04:30:33.443Z,34.97
2016-12-10T04:31:33.907Z,34.78
2016-12-10T04:32:33.805Z,34.88
2016-12-10T04:33:33.495Z,34.78
2016-12-10T04:34:33.501Z,34.97
2016-12-10T04:35:33.519Z,35.35
2016-12-10T04:36:33.874Z,35.54
2016-12-10T04:37:33.861Z,35.35
2016-12-10T04:38:33.560Z,35.44
2016-12-10T04:39:33.891Z,35.44
2016-12-10T04:40:33.590Z,35.44
2016-12-10T04:41:33.607Z,35.44
2016-12-10T04:42:33.623Z,35.73
2016-12-10T04:43:33.954Z,35.92
2016-12-10T04:44:33.968Z,35.92
2016-12-10T04:45:33.985Z,36.11
2016-12-10T04:46:33.685Z,35.83
2016-12-10T04:47:33.699Z,35.63
2016-12-10T04:48:33.714Z,36.11
2016-12-10T04:49:33.729Z,35.83
2016-12-10T04:50:34.059Z,35.63
2016-12-10T04:51:34.074Z,36.3
2016-12-10T04:52:33.773Z,36.4
2016-12-10T04:53:33.791Z,35.63
2016-12-10T04:54:33.907Z,35.54
2016-12-10T04:55:33.819Z,35.25
2016-12-10T04:56:34.151Z,35.83
2016-12-10T04:57:34.168Z,35.63
2016-12-10T04:58:34.180Z,36.3
2016-12-10T04:59:33.881Z,36.3
2016-12-10T05:00:34.211Z,35.73
2016-12-10T05:01:34.233Z,35.05
2016-12-10T05:02:33.929Z,35.9
2016-12-10T05:03:33.940Z,35.63
2016-12-10T05:04:34.273Z,35.73
2016-12-10T05:05:33.974Z,35.24
2016-12-10T05:06:33.988Z,35.71
2016-12-10T05:07:34.317Z,35.33
2016-12-10T05:08:34.341Z,36
2016-12-10T05:09:34.035Z,36.66
2016-12-10T05:10:34.048Z,36.28
2016-12-10T05:11:34.380Z,36.94
2016-12-10T05:12:34.407Z,37.61
2016-12-10T05:13:34.103Z,36.57
2016-12-10T05:14:34.107Z,36.38
2016-12-10T05:15:34.442Z,37.04
2016-12-10T05:16:34.455Z,36.94
2016-12-10T05:17:34.153Z,36.76
2016-12-10T05:18:34.194Z,36.57
2016-12-10T05:19:34.181Z,36.94
2016-12-10T05:20:34.198Z,36.94
2016-12-10T05:21:34.213Z,37.61
2016-12-10T05:22:34.542Z,37.61
2016-12-10T05:23:34.566Z,37.23
2016-12-10T05:24:34.576Z,36.38
2016-12-10T05:25:34.273Z,36.19
2016-12-10T05:26:34.603Z,36.19
2016-12-10T05:27:34.628Z,35.81
2016-12-10T05:28:34.325Z,36
2016-12-10T05:29:34.332Z,35.61
2016-12-10T05:30:34.347Z,35.52
2016-12-10T05:31:34.679Z,35.81
2016-12-10T05:32:34.693Z,35.42
2016-12-10T05:33:34.394Z,35.61
2016-12-10T05:34:34.722Z,35.9
2016-12-10T05:35:34.423Z,35.52
2016-12-10T05:36:34.753Z,35.9
2016-12-10T05:37:34.452Z,35.61
2016-12-10T05:38:34.783Z,35.81
2016-12-10T05:39:34.485Z,36.09
2016-12-10T05:40:34.495Z,36.28
2016-12-10T05:41:34.835Z,35.9
2016-12-10T05:42:34.843Z,36.47
2016-12-10T05:43:34.541Z,36.76
2016-12-10T05:44:34.873Z,36.19
2016-12-10T05:45:34.890Z,36.47
2016-12-10T05:46:34.905Z,36.57
2016-12-10T05:47:34.602Z,35.9
2016-12-10T05:48:34.931Z,36.57
2016-12-10T05:49:34.631Z,35.9
2016-12-10T05:50:34.674Z,36.28
2016-12-10T05:51:34.979Z,37.04
2016-12-10T05:52:34.677Z,36.66
2016-12-10T05:53:34.693Z,37.04
2016-12-10T05:54:35.023Z,37.61
2016-12-10T05:55:35.037Z,37.04
2016-12-10T05:56:35.057Z,37.52
2016-12-10T05:57:34.756Z,37.8
2016-12-10T05:58:35.083Z,37.71
2016-12-10T05:59:34.786Z,36.76
2016-12-10T06:00:35.112Z,36.19
2016-12-10T06:01:34.812Z,36.28
2016-12-10T06:02:34.826Z,35.71
2016-12-10T06:03:35.170Z,35.9
2016-12-10T06:04:34.863Z,36
2016-12-10T06:05:34.895Z,35.52
2016-12-10T06:06:35.202Z,35.42
2016-12-10T06:07:35.216Z,35.9
2016-12-10T06:08:34.915Z,35.33
2016-12-10T06:09:34.930Z,35.42
2016-12-10T06:10:34.946Z,36
2016-12-10T06:11:35.296Z,35.42
2016-12-10T06:12:35.289Z,35.14
2016-12-10T06:13:34.988Z,35.52
2016-12-10T06:14:35.003Z,35.42
2016-12-10T06:15:35.021Z,36.09
2016-12-10T06:16:35.033Z,35.71
2016-12-10T06:17:35.048Z,35.42
2016-12-10T06:18:35.390Z,35.52
2016-12-10T06:19:35.394Z,35.52
2016-12-10T06:20:35.090Z,35.05
2016-12-10T06:21:35.425Z,34.48
2016-12-10T06:22:35.121Z,34.38
2016-12-10T06:23:35.453Z,34.29
2016-12-10T06:24:35.157Z,34.29
2016-12-10T06:25:35.483Z,34.48
2016-12-10T06:26:35.498Z,34.29
2016-12-10T06:27:35.510Z,34.29
2016-12-10T06:28:35.531Z,34.09
2016-12-10T06:29:35.228Z,34.4
2016-12-10T06:30:35.242Z,34.29
2016-12-10T06:31:35.255Z,34.19
2016-12-10T06:32:35.273Z,33.92
2016-12-10T06:33:35.286Z,33.83
2016-12-10T06:34:35.617Z,33.54
2016-12-10T06:35:35.634Z,33.45
2016-12-10T06:36:35.646Z,33.17
2016-12-10T06:37:35.691Z,34.59
2016-12-10T06:38:35.674Z,36.02
2016-12-10T06:39:35.385Z,35.06
2016-12-10T06:40:35.392Z,35.25
2016-12-10T06:41:35.752Z,35.16
2016-12-10T06:42:35.422Z,35.35
2016-12-10T06:43:35.756Z,35.35
2016-12-10T06:44:35.452Z,36.3
2016-12-10T06:45:35.786Z,36.38
2016-12-10T06:46:35.797Z,36.21
2016-12-10T06:47:35.497Z,35.44
2016-12-10T06:48:35.514Z,35.63
2016-12-10T06:49:35.528Z,35.63
2016-12-10T06:50:35.544Z,36.3
2016-12-10T06:51:35.559Z,36.02
2016-12-10T06:52:35.890Z,35.92
2016-12-10T06:53:35.588Z,35.44
2016-12-10T06:54:35.608Z,35.06
2016-12-10T06:55:35.621Z,34.59
2016-12-10T06:56:35.950Z,34.4
2016-12-10T06:57:35.963Z,35.25
2016-12-10T06:58:35.982Z,35.25
2016-12-10T06:59:35.680Z,34.97
2016-12-10T07:00:36.009Z,35.63
2016-12-10T07:01:35.708Z,36.3
2016-12-10T07:02:35.728Z,35.83
2016-12-10T07:03:36.055Z,35.44
2016-12-10T07:04:36.072Z,35.44
2016-12-10T07:05:35.768Z,34.4
2016-12-10T07:06:36.102Z,33.83
2016-12-10T07:07:36.117Z,33.92
2016-12-10T07:08:36.133Z,33.83
2016-12-10T07:09:36.149Z,34.02
2016-12-10T07:10:35.847Z,33.83
2016-12-10T07:11:35.865Z,33.73
2016-12-10T07:12:36.209Z,33.64
2016-12-10T07:13:36.210Z,33.54
2016-12-10T07:14:36.223Z,33.26
2016-12-10T07:15:35.920Z,33.92
2016-12-10T07:16:36.276Z,35.54
2016-12-10T07:17:35.969Z,36.3
2016-12-10T07:18:35.994Z,35.83
2016-12-10T07:19:35.982Z,35.44
2016-12-10T07:20:36.315Z,34.97
2016-12-10T07:21:36.327Z,34.59
2016-12-10T07:22:36.345Z,34.21
2016-12-10T07:23:36.363Z,34.4
2016-12-10T07:24:36.376Z,34.88
2016-12-10T07:25:36.392Z,35.06
2016-12-10T07:26:36.092Z,34.97
2016-12-10T07:27:36.434Z,34.78
2016-12-10T07:28:36.122Z,35.08
2016-12-10T07:29:36.137Z,35.83
2016-12-10T07:30:36.470Z,36.58
2016-12-10T07:31:36.182Z,37.73
2016-12-10T07:32:36.193Z,36.58
2016-12-10T07:33:36.197Z,36.3
2016-12-10T07:34:36.214Z,36.77
2016-12-10T07:35:36.550Z,38.01
2016-12-10T07:36:36.562Z,38.39
2016-12-10T07:37:36.577Z,37.82
2016-12-10T07:38:36.591Z,37.82
2016-12-10T07:39:36.318Z,38.1
2016-12-10T07:40:36.652Z,38.01
2016-12-10T07:41:36.642Z,36.87
2016-12-10T07:42:36.654Z,37.63
2016-12-10T07:43:36.669Z,38.01
2016-12-10T07:44:36.369Z,37.82
2016-12-10T07:45:36.386Z,37.92
2016-12-10T07:46:36.398Z,37.73
2016-12-10T07:47:36.416Z,38.2
2016-12-10T07:48:36.744Z,37.44
2016-12-10T07:49:36.782Z,36.96
2016-12-10T07:50:36.458Z,37.15
2016-12-10T07:51:36.474Z,36.11
2016-12-10T07:52:36.805Z,36.7
2016-12-10T07:53:36.821Z,37.92
2016-12-10T07:54:36.541Z,37.93
2016-12-10T07:55:36.862Z,38.48
2016-12-10T07:56:36.866Z,38.29
2016-12-10T07:57:36.595Z,38.96
2016-12-10T07:58:36.587Z,37.93
2016-12-10T07:59:36.644Z,37.37
2016-12-10T08:00:36.612Z,37.37
2016-12-10T08:01:36.940Z,37.74
2016-12-10T08:02:36.956Z,37.18
2016-12-10T08:03:36.975Z,36.6
2016-12-10T08:04:36.987Z,36.89
2016-12-10T08:05:36.685Z,37.93
2016-12-10T08:06:37.017Z,37.93
2016-12-10T08:07:37.032Z,37.74
2016-12-10T08:08:37.053Z,37.08
2016-12-10T08:09:37.065Z,36.41
2016-12-10T08:10:37.081Z,35.94
2016-12-10T08:11:37.094Z,36.22
2016-12-10T08:12:36.796Z,36.41
2016-12-10T08:13:36.809Z,36.22
2016-12-10T08:14:37.141Z,36.13
2016-12-10T08:15:37.155Z,36.6
2016-12-10T08:16:36.858Z,36.6
2016-12-10T08:17:36.869Z,36.32
2016-12-10T08:18:37.204Z,36.32
2016-12-10T08:19:37.217Z,36.51
2016-12-10T08:20:37.234Z,36.22
2016-12-10T08:21:36.932Z,35.65
2016-12-10T08:22:37.276Z,36.41
2016-12-10T08:23:37.279Z,37.46
2016-12-10T08:24:36.978Z,38.03
2016-12-10T08:25:37.317Z,36.79
2016-12-10T08:26:37.325Z,36.13
2016-12-10T08:27:37.341Z,36.22
2016-12-10T08:28:37.361Z,36.89
2016-12-10T08:29:37.067Z,37.08
2016-12-10T08:30:37.077Z,36.41
2016-12-10T08:31:37.407Z,36.32
2016-12-10T08:32:37.422Z,36.51
2016-12-10T08:33:37.438Z,35.94
2016-12-10T08:34:37.139Z,36.51
2016-12-10T08:35:37.153Z,35.65
2016-12-10T08:36:37.484Z,35.58
2016-12-10T08:37:37.501Z,35.67
2016-12-10T08:38:37.201Z,35.77
2016-12-10T08:39:37.530Z,35.58
2016-12-10T08:40:37.233Z,35.58
2016-12-10T08:41:37.561Z,35.1
2016-12-10T08:42:37.580Z,35.1
2016-12-10T08:43:37.279Z,35.1
2016-12-10T08:44:37.612Z,35.48
2016-12-10T08:45:37.627Z,35.77
2016-12-10T08:46:37.645Z,34.81
2016-12-10T08:47:37.666Z,34.81
2016-12-10T08:48:37.676Z,34.81
2016-12-10T08:49:37.376Z,34.81
2016-12-10T08:50:37.392Z,34.81
2016-12-10T08:51:37.732Z,34.72
2016-12-10T08:52:37.737Z,34.72
2016-12-10T08:53:37.440Z,35.58
2016-12-10T08:54:37.770Z,36.53
2016-12-10T08:55:37.472Z,36.62
2016-12-10T08:56:37.802Z,36.72
2016-12-10T08:57:37.503Z,35.77
2016-12-10T08:58:37.836Z,35.58
2016-12-10T08:59:37.543Z,35.96
2016-12-10T09:00:37.552Z,36.24
2016-12-10T09:01:37.567Z,36.33
2016-12-10T09:02:37.902Z,35.86
2016-12-10T09:03:37.917Z,35.96
2016-12-10T09:04:37.615Z,35.69
2016-12-10T09:05:37.634Z,36.07
2016-12-10T09:06:37.652Z,35.4
2016-12-10T09:07:37.985Z,35.12
2016-12-10T09:08:37.997Z,36.16
2016-12-10T09:09:37.698Z,35.88
2016-12-10T09:10:37.713Z,35.4
2016-12-10T09:11:38.048Z,35.12
2016-12-10T09:12:38.063Z,34.85
2016-12-10T09:13:38.082Z,33.61
2016-12-10T09:14:38.095Z,32.77
2016-12-10T09:15:37.800Z,32.03
2016-12-10T09:16:37.815Z,31.93
2016-12-10T09:17:38.147Z,31.74
2016-12-10T09:18:37.851Z,31.36
2016-12-10T09:19:37.867Z,30.98
2016-12-10T09:20:37.883Z,30.9
2016-12-10T09:21:37.919Z,30.42
2016-12-10T09:22:38.236Z,29.86
2016-12-10T09:23:37.935Z,29.21
2016-12-10T09:24:38.268Z,29.69
2016-12-10T09:25:38.291Z,29.3
2016-12-10T09:26:38.305Z,28.35
2016-12-10T09:27:38.326Z,27.39
2016-12-10T09:28:38.358Z,27.41
2016-12-10T09:29:38.054Z,27.41
2016-12-10T09:30:38.067Z,26.95
2016-12-10T09:31:38.403Z,26.56
2016-12-10T09:32:38.423Z,26.48
2016-12-10T09:33:38.124Z,26
2016-12-10T09:34:38.460Z,25.33
2016-12-10T09:35:38.480Z,25.71
2016-12-10T09:36:38.200Z,25.43
2016-12-10T09:37:38.212Z,25.52
2016-12-10T09:38:38.540Z,25.33
2016-12-10T09:39:38.577Z,25.33
2016-12-10T09:40:38.267Z,25.04
2016-12-10T09:41:38.606Z,24.68
2016-12-10T09:42:38.307Z,24.19
2016-12-10T09:43:38.641Z,24.39
2016-12-10T09:44:38.668Z,24.1
2016-12-10T09:45:38.685Z,23.73
2016-12-10T09:46:38.707Z,23.83
2016-12-10T09:47:38.755Z,24.02
2016-12-10T09:48:38.753Z,23.35
2016-12-10T09:49:38.454Z,23.93
2016-12-10T09:50:38.476Z,22.98
2016-12-10T09:51:38.502Z,23.17
2016-12-10T09:52:38.520Z,23.37
2016-12-10T09:53:38.542Z,22.32
2016-12-10T09:54:38.567Z,22.41
2016-12-10T09:55:38.587Z,21.74
2016-12-10T09:56:38.926Z,21.94
2016-12-10T09:57:38.630Z,21.74
2016-12-10T09:58:38.654Z,21.65
2016-12-10T09:59:38.994Z,21.65
2016-12-10T10:00:39.014Z,21.66
2016-12-10T10:01:39.038Z,20.89
2016-12-10T10:02:38.744Z,20.79
2016-12-10T10:03:38.765Z,21.47
2016-12-10T10:04:39.107Z,21.18
2016-12-10T10:05:38.813Z,21
2016-12-10T10:06:38.843Z,19.75
2016-12-10T10:07:39.176Z,19.85
2016-12-10T10:08:39.205Z,19.65
2016-12-10T10:09:38.904Z,19.65
2016-12-10T10:10:39.242Z,19.56
2016-12-10T10:11:38.949Z,19.67
2016-12-10T10:12:38.974Z,18.8
2016-12-10T10:13:38.996Z,18.71
2016-12-10T10:14:39.335Z,18.42
2016-12-10T10:15:39.056Z,17.94
2016-12-10T10:16:39.381Z,18.24
2016-12-10T10:17:39.407Z,17.85
2016-12-10T10:18:39.426Z,17.27
2016-12-10T10:19:39.454Z,18.04
2016-12-10T10:20:39.475Z,17.29
2016-12-10T10:21:39.497Z,17.96
2016-12-10T10:22:39.208Z,17.96
2016-12-10T10:23:39.549Z,17.38
2016-12-10T10:24:39.578Z,17.47
2016-12-10T10:25:39.278Z,17.87
2016-12-10T10:26:39.629Z,17.39
2016-12-10T10:27:39.328Z,16.42
2016-12-10T10:28:39.667Z,15.28
2016-12-10T10:29:39.374Z,15.28
2016-12-10T10:30:39.714Z,15.37
2016-12-10T10:31:39.738Z,15.18
2016-12-10T10:32:39.761Z,14.42
2016-12-10T10:33:39.470Z,14.61
2016-12-10T10:34:39.809Z,13.36
2016-12-10T10:35:39.522Z,13.65
2016-12-10T10:36:39.859Z,13.26
2016-12-10T10:37:39.571Z,12.49
2016-12-10T10:38:39.593Z,13.36
2016-12-10T10:39:39.934Z,12.98
2016-12-10T10:40:39.641Z,12.88
2016-12-10T10:41:39.981Z,12.88
2016-12-10T10:42:39.692Z,13.26
2016-12-10T10:43:39.715Z,13.26
2016-12-10T10:44:40.054Z,13.37
2016-12-10T10:45:39.767Z,13.17
2016-12-10T10:46:40.104Z,12.4
2016-12-10T10:47:40.128Z,12.6
2016-12-10T10:48:39.840Z,12.88
2016-12-10T10:49:39.861Z,12.99
2016-12-10T10:50:40.200Z,12.32
2016-12-10T10:51:39.929Z,12.79
2016-12-10T10:52:39.939Z,12.99
2016-12-10T10:53:39.960Z,12.51
2016-12-10T10:54:39.995Z,12.79
2016-12-10T10:55:40.327Z,12.02
2016-12-10T10:56:40.032Z,12.12
2016-12-10T10:57:40.393Z,11.25
2016-12-10T10:58:40.082Z,11.45
2016-12-10T10:59:40.109Z,11.64
2016-12-10T11:00:40.448Z,11.83
2016-12-10T11:01:40.469Z,10.58
2016-12-10T11:02:40.496Z,10.87
2016-12-10T11:03:40.207Z,11.45
2016-12-10T11:04:40.233Z,11.16
2016-12-10T11:05:40.570Z,11.74
2016-12-10T11:06:40.597Z,12.02
2016-12-10T11:07:40.621Z,11.84
2016-12-10T11:08:40.648Z,11.65
2016-12-10T11:09:40.359Z,11.84
2016-12-10T11:10:40.376Z,10.68
2016-12-10T11:11:40.718Z,11.16
2016-12-10T11:12:40.439Z,11.36
2016-12-10T11:13:40.452Z,10.88
2016-12-10T11:14:40.477Z,10.97
2016-12-10T11:15:40.515Z,10.11
2016-12-10T11:16:40.843Z,10.39
2016-12-10T11:17:40.584Z,10.59
2016-12-10T11:18:40.893Z,10.59
2016-12-10T11:19:40.602Z,9.91
2016-12-10T11:20:40.953Z,10.3
2016-12-10T11:21:40.967Z,10.11
2016-12-10T11:22:41.016Z,10.59
2016-12-10T11:23:40.728Z,11.16
2016-12-10T11:24:41.041Z,11.65
2016-12-10T11:25:41.067Z,11.55
2016-12-10T11:26:40.775Z,11.26
2016-12-10T11:27:41.118Z,10.3
2016-12-10T11:28:40.825Z,10.97
2016-12-10T11:29:41.168Z,10.97
2016-12-10T11:30:41.191Z,10.69
2016-12-10T11:31:41.217Z,11.55
2016-12-10T11:32:40.933Z,11.65
2016-12-10T11:33:41.265Z,11.46
2016-12-10T11:34:40.975Z,11.46
2016-12-10T11:35:41.315Z,11.65
2016-12-10T11:36:41.024Z,10.02
2016-12-10T11:37:41.364Z,10.69
2016-12-10T11:38:41.407Z,10.4
2016-12-10T11:39:41.415Z,10.11
2016-12-10T11:40:41.453Z,10.59
2016-12-10T11:41:41.151Z,10.78
2016-12-10T11:42:41.173Z,10.78
2016-12-10T11:43:41.200Z,10.02
2016-12-10T11:44:41.226Z,10.11
2016-12-10T11:45:41.250Z,9.92
2016-12-10T11:46:41.275Z,10.31
2016-12-10T11:47:41.615Z,10.69
2016-12-10T11:48:41.642Z,10.79
2016-12-10T11:49:41.369Z,9.92
2016-12-10T11:50:41.376Z,10.59
2016-12-10T11:51:41.717Z,10.5
2016-12-10T11:52:41.424Z,10.02
2016-12-10T11:53:41.450Z,10.5
2016-12-10T11:54:41.793Z,10.41
2016-12-10T11:55:41.504Z,11.18
2016-12-10T11:56:41.847Z,10.69
2016-12-10T11:57:41.869Z,10.41
2016-12-10T11:58:41.894Z,10.7
2016-12-10T11:59:41.603Z,10.5
2016-12-10T12:00:41.626Z,9.15
2016-12-10T12:01:41.965Z,10.5
2016-12-10T12:02:41.997Z,10.6
2016-12-10T12:03:41.748Z,10.5
2016-12-10T12:04:42.050Z,10.8
2016-12-10T12:05:41.758Z,10.5
2016-12-10T12:06:41.781Z,10.89
2016-12-10T12:07:41.804Z,10.7
2016-12-10T12:08:41.830Z,10.22
2016-12-10T12:09:41.859Z,9.64
2016-12-10T12:10:41.881Z,10.12
2016-12-10T12:11:42.224Z,9.83
2016-12-10T12:12:42.272Z,9.93
2016-12-10T12:13:41.964Z,10.22
2016-12-10T12:14:42.299Z,9.83
2016-12-10T12:15:42.010Z,10.12
2016-12-10T12:16:42.351Z,10.22
2016-12-10T12:17:42.380Z,10.02
2016-12-10T12:18:42.086Z,10.12
2016-12-10T12:19:42.117Z,10.6
2016-12-10T12:20:42.142Z,10.02
2016-12-10T12:21:42.183Z,9.74
2016-12-10T12:22:42.506Z,9.83
2016-12-10T12:23:42.217Z,9.93
2016-12-10T12:24:42.243Z,9.45
2016-12-10T12:25:42.266Z,9.54
2016-12-10T12:26:42.611Z,10.8
2016-12-10T12:27:42.637Z,10.31
2016-12-10T12:28:42.660Z,9.26
2016-12-10T12:29:42.684Z,9.26
2016-12-10T12:30:42.397Z,10.32
2016-12-10T12:31:42.422Z,9.93
2016-12-10T12:32:42.773Z,9.55
2016-12-10T12:33:42.789Z,9.74
2016-12-10T12:34:42.814Z,9.74
2016-12-10T12:35:42.842Z,9.93
2016-12-10T12:36:42.551Z,10.41
2016-12-10T12:37:42.577Z,9.93
2016-12-10T12:38:42.918Z,9.16
2016-12-10T12:39:42.944Z,8.78
2016-12-10T12:40:42.653Z,9.06
2016-12-10T12:41:42.997Z,9.84
2016-12-10T12:42:42.704Z,9.36
2016-12-10T12:43:43.056Z,8.87
2016-12-10T12:44:42.761Z,9.26
2016-12-10T12:45:42.784Z,9.84
2016-12-10T12:46:43.154Z,9.16
2016-12-10T12:47:42.833Z,9.84
2016-12-10T12:48:42.859Z,9.93
2016-12-10T12:49:42.887Z,10.61
2016-12-10T12:50:43.228Z,10.22
2016-12-10T12:51:42.955Z,10.22
2016-12-10T12:52:42.966Z,10.61
2016-12-10T12:53:43.305Z,10.03
2016-12-10T12:54:43.333Z,9.64
2016-12-10T12:55:43.363Z,9.93
2016-12-10T12:56:43.383Z,9.55
2016-12-10T12:57:43.093Z,9.93